Time;durP1;ratioP1;P1;durP2;ratioP2;P2;SDS_P1;SDS_P2;PMS_P1;PMS_P2;Temp;Humidity;BMP_temperature;BMP_pressure;BME280_temperature;BME280_humidity;BME280_pressure;Samples;Min_cycle;Max_cycle;Signal;HPM_P1;HPM_P2
2023/12/05 00:00:21;;;;;;;1.55;1.40;;;;;;;2.06;100.00;100058.03;5099034;27;96510;-27
2023/12/05 00:02:46;;;;;;;2.10;1.50;;;;;;;2.02;100.00;100045.72;5099007;27;96670;-27
2023/12/05 00:05:12;;;;;;;1.05;0.98;;;;;;;2.05;100.00;100047.38;5097954;27;97435;-27
2023/12/05 00:07:38;;;;;;;1.85;1.58;;;;;;;2.03;100.00;100042.13;5098544;27;97236;-27
2023/12/05 00:10:05;;;;;;;3.10;2.33;;;;;;;2.04;100.00;100040.31;5098836;27;96628;-27
2023/12/05 00:12:30;;;;;;;2.15;1.95;;;;;;;2.06;100.00;100043.81;5080090;27;96908;-27
2023/12/05 00:14:55;;;;;;;2.33;1.67;;;;;;;2.07;100.00;100041.09;5098441;27;97935;-27
2023/12/05 00:17:21;;;;;;;4.10;3.20;;;;;;;2.02;100.00;100026.16;5098377;27;97760;-27
2023/12/05 00:19:46;;;;;;;1.95;1.58;;;;;;;2.10;100.00;100034.75;5098376;27;96643;-27
2023/12/05 00:22:11;;;;;;;1.55;1.45;;;;;;;2.10;100.00;100038.28;5098614;27;96846;-28
2023/12/05 00:24:37;;;;;;;1.42;1.33;;;;;;;2.07;100.00;100030.41;5097782;27;97802;-27
2023/12/05 00:27:02;;;;;;;0.93;0.85;;;;;;;2.12;100.00;100036.44;5097949;27;99159;-27
2023/12/05 00:29:27;;;;;;;1.33;1.23;;;;;;;2.06;100.00;100022.44;5097776;27;96510;-27
2023/12/05 00:31:53;;;;;;;1.75;1.63;;;;;;;2.10;100.00;100024.94;5098426;27;96838;-28
2023/12/05 00:34:18;;;;;;;1.17;1.02;;;;;;;2.11;100.00;100028.47;5097880;27;99207;-27
2023/12/05 00:36:44;;;;;;;2.17;1.50;;;;;;;2.14;100.00;100025.66;5098117;27;97852;-27
2023/12/05 00:39:09;;;;;;;1.05;0.98;;;;;;;2.18;100.00;100034.44;5098192;27;96752;-28
2023/12/05 00:41:34;;;;;;;0.80;0.80;;;;;;;2.17;100.00;100036.25;5098048;27;96793;-27
2023/12/05 00:44:00;;;;;;;5.07;1.40;;;;;;;2.17;100.00;100030.00;5098274;27;97680;-27
2023/12/05 00:46:26;;;;;;;1.60;1.50;;;;;;;2.18;100.00;100024.63;5098049;27;99716;-27
2023/12/05 00:48:51;;;;;;;1.33;1.23;;;;;;;2.22;100.00;100022.72;5079540;27;96569;-27
2023/12/05 00:51:17;;;;;;;1.30;1.20;;;;;;;2.23;100.00;100030.63;5097515;27;96808;-27
2023/12/05 00:53:42;;;;;;;1.10;1.00;;;;;;;2.21;100.00;100026.28;5096770;27;97429;-27
2023/12/05 00:56:11;;;;;;;3.90;2.95;;;;;;;2.25;100.00;100027.91;5097548;27;97829;-27
2023/12/05 00:58:37;;;;;;;1.25;1.08;;;;;;;2.22;100.00;100020.91;5079301;27;96583;-27
2023/12/05 01:01:03;;;;;;;1.75;1.45;;;;;;;2.24;100.00;100034.16;5097787;27;96818;-27
2023/12/05 01:03:28;;;;;;;2.85;2.00;;;;;;;2.23;100.00;100029.78;5097441;27;99333;-27
2023/12/05 01:05:53;;;;;;;2.90;2.22;;;;;;;2.23;100.00;100021.75;5097509;27;101847;-27
2023/12/05 01:08:19;;;;;;;1.30;0.82;;;;;;;2.20;100.00;100014.75;5098013;27;96467;-27
2023/12/05 01:10:44;;;;;;;1.60;1.20;;;;;;;2.25;100.00;100022.56;5097930;27;96889;-27
2023/12/05 01:13:09;;;;;;;1.77;1.52;;;;;;;2.28;100.00;100023.28;5097651;27;97302;-27
2023/12/05 01:15:35;;;;;;;0.73;0.73;;;;;;;2.28;100.00;100027.78;5097166;27;99039;-27
2023/12/05 01:18:01;;;;;;;2.47;1.45;;;;;;;2.29;100.00;100033.06;5078529;27;96596;-27
2023/12/05 01:20:26;;;;;;;2.00;1.25;;;;;;;2.31;100.00;100033.00;5097752;27;96764;-27
2023/12/05 01:22:51;;;;;;;4.07;1.98;;;;;;;2.31;100.00;100033.00;5096869;27;99278;-27
2023/12/05 01:25:17;;;;;;;2.85;2.47;;;;;;;2.22;100.00;100014.69;5097116;27;101631;-27
2023/12/05 01:27:42;;;;;;;2.72;2.13;;;;;;;2.33;100.00;100037.34;5079004;27;96631;-29
2023/12/05 01:30:08;;;;;;;1.02;0.93;;;;;;;2.34;100.00;100038.22;5097423;27;96840;-30
2023/12/05 01:32:33;;;;;;;1.65;1.15;;;;;;;2.35;100.00;100039.97;5097276;27;98047;-27
2023/12/05 01:34:59;;;;;;;2.28;2.08;;;;;;;2.34;100.00;100038.22;5078626;27;101233;-28
2023/12/05 01:37:24;;;;;;;2.55;2.25;;;;;;;2.36;100.00;100044.38;5097420;27;96681;-28
2023/12/05 01:39:50;;;;;;;3.47;1.65;;;;;;;2.33;100.00;100033.81;5097099;27;96799;-28
2023/12/05 01:42:15;;;;;;;1.33;1.23;;;;;;;2.37;100.00;100040.78;5096552;27;98077;-27
2023/12/05 01:44:40;;;;;;;2.42;1.98;;;;;;;2.35;100.00;100042.63;5096892;27;97771;-27
2023/12/05 01:47:06;;;;;;;3.40;1.95;;;;;;;2.38;100.00;100041.63;5097458;27;96474;-27
2023/12/05 01:49:33;;;;;;;1.20;1.10;;;;;;;2.39;100.00;100046.06;5096807;27;96830;-29
2023/12/05 01:52:00;;;;;;;1.60;1.48;;;;;;;2.39;100.00;100046.94;5078184;27;101265;-27
2023/12/05 01:54:27;;;;;;;4.32;2.10;;;;;;;2.36;100.00;100041.72;5074308;27;100946;-27
2023/12/05 01:56:55;;;;;;;4.30;3.22;;;;;;;2.39;100.00;100052.28;5074896;27;96641;-27
2023/12/05 01:59:22;;;;;;;2.70;2.13;;;;;;;2.34;100.00;100039.09;5076549;27;96824;-27
2023/12/05 02:01:49;;;;;;;1.58;1.42;;;;;;;2.37;100.00;100046.13;5074284;27;101609;-27
2023/12/05 02:04:16;;;;;;;2.30;1.67;;;;;;;2.40;100.00;100058.47;5075847;27;97273;-27
2023/12/05 02:06:41;;;;;;;1.50;1.27;;;;;;;2.37;100.00;100054.13;5074183;27;96668;-29
2023/12/05 02:09:09;;;;;;;3.90;2.60;;;;;;;2.38;100.00;100046.97;5076284;27;96807;-27
2023/12/05 02:11:35;;;;;;;1.15;1.05;;;;;;;2.39;100.00;100056.75;5075767;27;97444;-27
2023/12/05 02:14:01;;;;;;;1.05;0.88;;;;;;;2.41;100.00;100055.75;5074328;27;100977;-27
2023/12/05 02:16:30;;;;;;;1.50;1.38;;;;;;;2.44;100.00;100052.94;5075966;27;96621;-27
2023/12/05 02:19:04;;;;;;;2.30;1.60;;;;;;;2.40;100.00;100042.44;5076233;27;96970;-27
2023/12/05 02:21:33;;;;;;;1.95;1.48;;;;;;;2.38;100.00;100045.16;5074286;27;101424;-27
2023/12/05 02:24:25;;;;;;;5.00;2.15;;;;;;;2.43;100.00;100053.91;5074508;27;101442;-28
2023/12/05 02:26:58;;;;;;;1.60;1.40;;;;;;;2.44;100.00;100058.28;5074562;27;98321;-27
2023/12/05 02:29:24;;;;;;;0.98;0.98;;;;;;;2.45;100.00;100056.47;5075906;27;96762;-27
2023/12/05 02:31:49;;;;;;;1.35;1.13;;;;;;;2.43;100.00;100059.25;5075104;27;97932;-27
2023/12/05 02:34:14;;;;;;;0.43;0.40;;;;;;;2.41;100.00;100052.19;5075495;27;99126;-27
2023/12/05 02:37:04;;;;;;;1.13;1.00;;;;;;;2.45;100.00;100059.16;5075832;27;96584;-27
2023/12/05 02:39:45;;;;;;;1.35;1.25;;;;;;;2.46;100.00;100063.59;5075966;27;96801;-27
2023/12/05 02:42:13;;;;;;;4.93;2.05;;;;;;;2.42;100.00;100046.78;5075317;27;100073;-27
2023/12/05 02:44:50;;;;;;;1.77;1.65;;;;;;;2.49;100.00;100058.09;5073830;27;101045;-27
2023/12/05 02:47:19;;;;;;;2.55;1.98;;;;;;;2.44;100.00;100052.94;5074348;27;96661;-29
2023/12/05 02:49:44;;;;;;;2.22;2.03;;;;;;;2.41;100.00;100044.16;5074201;27;97029;-28
2023/12/05 02:52:10;;;;;;;2.97;2.05;;;;;;;2.45;100.00;100054.69;5075221;27;97758;-27
2023/12/05 02:54:35;;;;;;;4.13;3.03;;;;;;;2.41;100.00;100054.84;5094043;27;97754;-27
2023/12/05 02:57:01;;;;;;;3.08;2.25;;;;;;;2.43;100.00;100058.34;5095629;27;96485;-27
2023/12/05 02:59:26;;;;;;;4.78;2.83;;;;;;;2.42;100.00;100057.47;5077404;27;96842;-27
2023/12/05 03:01:52;;;;;;;3.40;2.15;;;;;;;2.45;100.00;100059.16;5095728;27;98434;-27
2023/12/05 03:04:17;;;;;;;1.63;1.42;;;;;;;2.46;100.00;100052.91;5095787;27;98247;-27
2023/12/05 03:06:43;;;;;;;2.92;2.35;;;;;;;2.43;100.00;100053.00;5095934;27;96498;-27
2023/12/05 03:09:08;;;;;;;1.27;1.17;;;;;;;2.44;100.00;100052.94;5077133;27;96851;-27
2023/12/05 03:11:34;;;;;;;5.53;2.20;;;;;;;2.47;100.00;100054.63;5095820;27;97906;-27
2023/12/05 03:14:02;;;;;;;2.28;1.77;;;;;;;2.47;100.00;100054.63;5095940;27;100329;-27
2023/12/05 03:16:27;;;;;;;2.88;1.63;;;;;;;2.42;100.00;100049.47;5099253;27;96600;-27
2023/12/05 03:18:53;;;;;;;1.98;1.77;;;;;;;2.42;100.00;100052.13;5099750;27;96825;-29
2023/12/05 03:21:19;;;;;;;2.60;2.25;;;;;;;2.44;100.00;100057.44;5098506;27;99350;-27
2023/12/05 03:23:44;;;;;;;4.13;3.15;;;;;;;2.40;100.00;100058.47;5098703;27;99347;-27
2023/12/05 03:26:20;;;;;;;5.50;3.28;;;;;;;2.43;100.00;100064.59;5099191;27;96497;-27
2023/12/05 03:28:47;;;;;;;2.60;2.20;;;;;;;2.44;100.00;100070.78;5099333;27;96740;-27
2023/12/05 03:31:13;;;;;;;3.15;2.15;;;;;;;2.42;100.00;100068.16;5080459;27;100618;-27
2023/12/05 03:33:38;;;;;;;2.95;1.95;;;;;;;2.43;100.00;100067.25;5098799;27;99316;-27
2023/12/05 03:36:04;;;;;;;3.03;2.25;;;;;;;2.43;100.00;100058.34;5099442;27;96630;-27
2023/12/05 03:38:30;;;;;;;2.72;2.50;;;;;;;2.39;100.00;100049.59;5099549;27;96869;-27
2023/12/05 03:40:56;;;;;;;2.33;1.67;;;;;;;2.39;100.00;100046.06;5099128;27;97672;-28
2023/12/05 03:43:22;;;;;;;4.40;3.25;;;;;;;2.42;100.00;100051.28;5098814;27;97951;-27
2023/12/05 03:45:47;;;;;;;4.15;2.65;;;;;;;2.40;100.00;100054.00;5079953;27;96861;-27
2023/12/05 03:48:13;;;;;;;2.03;1.83;;;;;;;2.34;100.00;100051.59;5098827;27;96821;-26
2023/12/05 03:50:38;;;;;;;2.10;1.52;;;;;;;2.34;100.00;100055.13;5098482;27;105908;-27
2023/12/05 03:53:03;;;;;;;3.20;2.20;;;;;;;2.34;100.00;100054.25;5097902;27;97871;-28
2023/12/05 03:55:31;;;;;;;2.83;1.85;;;;;;;2.31;100.00;100060.59;5099066;27;97240;-27
2023/12/05 03:57:57;;;;;;;2.22;1.95;;;;;;;2.32;100.00;100066.81;5080422;27;96874;-27
2023/12/05 04:00:22;;;;;;;5.65;4.32;;;;;;;2.34;100.00;100070.28;5098347;27;98751;-27
2023/12/05 04:02:47;;;;;;;1.33;1.15;;;;;;;2.34;100.00;100076.50;5098661;27;98725;-28
2023/12/05 04:05:13;;;;;;;1.42;1.08;;;;;;;2.29;100.00;100073.16;5079901;27;96610;-27
2023/12/05 04:07:40;;;;;;;2.47;1.95;;;;;;;2.32;100.00;100081.03;5098483;27;96820;-27
2023/12/05 04:10:06;;;;;;;2.05;1.45;;;;;;;2.31;100.00;100083.75;5097865;27;97364;-27
2023/12/05 04:12:32;;;;;;;3.50;2.17;;;;;;;2.32;100.00;100083.72;5098157;27;97792;-27
2023/12/05 04:14:57;;;;;;;2.65;2.42;;;;;;;2.27;100.00;100077.69;5098682;27;96683;-27
2023/12/05 04:17:22;;;;;;;2.55;2.35;;;;;;;2.26;100.00;100091.97;5098613;27;96836;-28
2023/12/05 04:19:48;;;;;;;2.17;1.88;;;;;;;2.28;100.00;100087.44;5098044;27;99446;-27
2023/12/05 04:22:13;;;;;;;2.10;1.40;;;;;;;2.27;100.00;100092.84;5097877;27;97780;-28
2023/12/05 04:24:38;;;;;;;2.90;2.38;;;;;;;2.27;100.00;100098.19;5098715;27;96528;-27
2023/12/05 04:27:04;;;;;;;2.75;2.40;;;;;;;2.29;100.00;100109.69;5098333;27;96797;-27
2023/12/05 04:29:29;;;;;;;2.60;2.00;;;;;;;2.25;100.00;100103.59;5098495;27;97356;-27
2023/12/05 04:31:54;;;;;;;2.33;1.52;;;;;;;2.26;100.00;100108.00;5097966;27;105843;-28
2023/12/05 04:34:20;;;;;;;0.98;0.90;;;;;;;2.26;100.00;100102.66;5097883;27;96553;-27
2023/12/05 04:36:45;;;;;;;2.08;1.77;;;;;;;2.26;100.00;100110.66;5097722;27;96836;-27
2023/12/05 04:39:10;;;;;;;1.92;1.73;;;;;;;2.21;100.00;100099.28;5097784;27;99172;-27
2023/12/05 04:41:36;;;;;;;2.90;2.47;;;;;;;2.26;100.00;100115.13;5097891;27;98318;-27
2023/12/05 04:44:01;;;;;;;2.55;2.05;;;;;;;2.27;100.00;100123.09;5098242;27;96517;-27
2023/12/05 04:46:26;;;;;;;1.98;1.77;;;;;;;2.23;100.00;100109.91;5098112;27;96959;-27
2023/12/05 04:48:51;;;;;;;3.95;2.42;;;;;;;2.18;100.00;100110.09;5097747;27;104656;-27
2023/12/05 04:51:20;;;;;;;3.42;2.30;;;;;;;2.21;100.00;100119.78;5097552;27;98639;-27
2023/12/05 04:53:45;;;;;;;2.67;2.13;;;;;;;2.23;100.00;100134.84;5097501;27;96753;-27
2023/12/05 04:56:11;;;;;;;2.30;1.95;;;;;;;2.22;100.00;100130.44;5097760;27;96812;-27
2023/12/05 04:58:36;;;;;;;2.47;1.27;;;;;;;2.24;100.00;100133.91;5096906;27;101416;-27
2023/12/05 05:01:02;;;;;;;1.45;1.35;;;;;;;2.24;100.00;100141.03;5097629;27;97852;-27
2023/12/05 05:03:28;;;;;;;1.98;1.80;;;;;;;2.18;100.00;100130.59;5097693;27;97191;-27
2023/12/05 05:05:53;;;;;;;1.88;1.00;;;;;;;2.22;100.00;100140.25;5097931;27;96825;-29
2023/12/05 05:08:18;;;;;;;2.38;2.17;;;;;;;2.18;100.00;100133.28;5097616;27;97964;-27
2023/12/05 05:10:44;;;;;;;2.35;1.83;;;;;;;2.18;100.00;100133.28;5097600;27;97245;-27
2023/12/05 05:13:09;;;;;;;3.00;2.40;;;;;;;2.21;100.00;100150.06;5098029;27;97141;-27
2023/12/05 05:15:34;;;;;;;1.80;1.70;;;;;;;2.14;100.00;100137.84;5098121;27;96838;-27
2023/12/05 05:18:00;;;;;;;2.90;1.80;;;;;;;2.15;100.00;100144.09;5097333;27;97390;-27
2023/12/05 05:20:25;;;;;;;2.78;1.77;;;;;;;2.16;100.00;100153.84;5097164;27;99087;-29
2023/12/05 05:22:51;;;;;;;1.80;1.65;;;;;;;2.12;100.00;100155.75;5096622;27;96719;-27
2023/12/05 05:25:16;;;;;;;3.83;1.92;;;;;;;2.12;100.00;100156.63;5097447;27;96758;-27
2023/12/05 05:27:41;;;;;;;4.88;2.55;;;;;;;2.12;100.00;100156.63;5079231;27;97472;-27
2023/12/05 05:30:09;;;;;;;1.92;1.73;;;;;;;2.10;100.00;100153.16;5097194;27;97777;-26
2023/12/05 05:32:36;;;;;;;3.17;2.28;;;;;;;2.08;100.00;100154.13;5078755;27;96589;-27
2023/12/05 05:35:02;;;;;;;1.10;1.00;;;;;;;2.10;100.00;100152.28;5078565;27;96610;-27
2023/12/05 05:37:27;;;;;;;3.63;2.53;;;;;;;2.10;100.00;100154.97;5077240;27;99054;-28
2023/12/05 05:39:53;;;;;;;1.45;1.25;;;;;;;2.04;100.00;100141.81;5097212;27;99546;-28
2023/12/05 05:42:19;;;;;;;2.00;1.67;;;;;;;2.05;100.00;100148.88;5078660;27;96645;-27
2023/12/05 05:44:45;;;;;;;2.47;1.67;;;;;;;2.08;100.00;100152.34;5097099;27;96474;-27
2023/12/05 05:47:10;;;;;;;3.88;2.33;;;;;;;2.08;100.00;100155.00;5096430;27;97877;-27
2023/12/05 05:49:35;;;;;;;1.40;1.30;;;;;;;2.07;100.00;100163.97;5096455;27;97296;-27
2023/12/05 05:52:01;;;;;;;1.73;1.27;;;;;;;2.06;100.00;100153.31;5097293;27;96542;-27
2023/12/05 05:54:26;;;;;;;2.10;1.48;;;;;;;2.01;100.00;100150.81;5096750;27;96795;-27
2023/12/05 05:56:51;;;;;;;5.45;3.50;;;;;;;2.02;100.00;100154.34;5096954;27;97961;-28
2023/12/05 05:59:17;;;;;;;2.42;2.03;;;;;;;2.03;100.00;100156.13;5096750;27;97825;-27
2023/12/05 06:01:42;;;;;;;2.03;1.23;;;;;;;2.02;100.00;100154.34;5097146;27;96430;-28
2023/12/05 06:04:07;;;;;;;2.13;1.58;;;;;;;2.03;100.00;100165.00;5097027;27;96981;-28
2023/12/05 06:06:33;;;;;;;2.83;1.77;;;;;;;1.95;100.00;100145.69;5096575;27;97300;-27
2023/12/05 06:08:58;;;;;;;2.28;1.25;;;;;;;2.03;100.00;100167.66;5096417;27;99184;-27
2023/12/05 06:11:23;;;;;;;3.20;2.42;;;;;;;1.99;100.00;100166.03;5096162;27;96584;-27
2023/12/05 06:13:49;;;;;;;1.77;1.45;;;;;;;1.99;100.00;100166.03;5096711;27;96779;-27
2023/12/05 06:16:14;;;;;;;1.15;1.02;;;;;;;2.05;100.00;100183.59;5096529;27;97908;-28
2023/12/05 06:18:40;;;;;;;1.77;1.65;;;;;;;2.04;100.00;100188.09;5095491;27;104861;-28
2023/12/05 06:21:05;;;;;;;1.33;0.75;;;;;;;2.02;100.00;100186.41;5096908;27;96678;-27
2023/12/05 06:23:31;;;;;;;1.63;1.35;;;;;;;1.98;100.00;100187.44;5077692;27;96900;-27
2023/12/05 06:25:56;;;;;;;2.22;1.58;;;;;;;2.01;100.00;100190.03;5096161;27;98340;-27
2023/12/05 06:28:21;;;;;;;1.13;0.93;;;;;;;2.01;100.00;100204.25;5096986;27;97261;-27
2023/12/05 06:30:47;;;;;;;1.83;1.73;;;;;;;2.01;100.00;100200.69;5096555;27;96598;-27
2023/12/05 06:33:12;;;;;;;1.23;1.13;;;;;;;1.95;100.00;100191.09;5096246;27;97538;-27
2023/12/05 06:35:38;;;;;;;1.25;1.10;;;;;;;1.94;100.00;100199.19;5095424;27;99218;-28
2023/12/05 06:38:03;;;;;;;3.17;2.15;;;;;;;1.97;100.00;100209.75;5093606;27;98970;-29
2023/12/05 06:40:28;;;;;;;3.55;2.50;;;;;;;1.93;100.00;100203.63;5093607;27;97103;-29
2023/12/05 06:42:54;;;;;;;2.35;1.92;;;;;;;1.95;100.00;100214.25;5093573;27;96824;-28
2023/12/05 06:45:19;;;;;;;1.42;1.23;;;;;;;1.91;100.00;100218.88;5093371;27;99233;-28
2023/12/05 06:47:45;;;;;;;2.83;2.45;;;;;;;1.95;100.00;100227.63;5093598;27;97854;-30
2023/12/05 06:50:11;;;;;;;2.88;1.95;;;;;;;1.93;100.00;100241.00;5093385;27;96658;-29
2023/12/05 06:52:40;;;;;;;1.45;1.30;;;;;;;1.93;100.00;100238.34;5076482;27;97449;-27
2023/12/05 06:55:06;;;;;;;4.22;2.65;;;;;;;1.90;100.00;100235.78;5077172;27;101030;-27
2023/12/05 06:57:32;;;;;;;1.70;1.17;;;;;;;1.88;100.00;100241.22;5077130;27;102502;-27
2023/12/05 06:59:57;;;;;;;2.65;1.70;;;;;;;1.93;100.00;100251.69;5095416;27;96631;-27
2023/12/05 07:02:23;;;;;;;2.17;1.83;;;;;;;1.90;100.00;100250.00;5096314;27;96827;-27
2023/12/05 07:04:48;;;;;;;1.65;1.38;;;;;;;1.88;100.00;100254.56;5095633;27;99247;-27
2023/12/05 07:07:13;;;;;;;4.65;2.88;;;;;;;1.87;100.00;100249.25;5095587;27;97368;-27
2023/12/05 07:09:39;;;;;;;2.03;1.85;;;;;;;1.92;100.00;100261.50;5096391;27;96620;-28
2023/12/05 07:12:05;;;;;;;2.92;1.92;;;;;;;1.95;100.00;100271.22;5096163;27;96899;-27
2023/12/05 07:14:34;;;;;;;2.22;2.03;;;;;;;1.92;100.00;100276.66;5076890;27;99122;-27
2023/12/05 07:16:59;;;;;;;2.17;1.15;;;;;;;1.92;100.00;100277.53;5077101;27;101202;-27
2023/12/05 07:19:25;;;;;;;4.13;2.45;;;;;;;1.90;100.00;100265.16;5095608;27;96571;-27
2023/12/05 07:21:50;;;;;;;1.90;1.50;;;;;;;1.89;100.00;100268.78;5095827;27;96772;-27
2023/12/05 07:24:15;;;;;;;1.27;1.15;;;;;;;1.86;100.00;100271.53;5094962;27;98066;-27
2023/12/05 07:26:41;;;;;;;1.42;1.33;;;;;;;1.90;100.00;100276.72;5095546;27;97680;-27
2023/12/05 07:29:06;;;;;;;0.40;0.40;;;;;;;1.89;100.00;100280.31;5095743;27;96635;-27
2023/12/05 07:31:32;;;;;;;1.58;1.48;;;;;;;1.87;100.00;100278.63;5095741;27;96716;-27
2023/12/05 07:33:57;;;;;;;2.40;1.55;;;;;;;1.92;100.00;100285.56;5095324;27;97900;-27
2023/12/05 07:36:24;;;;;;;2.38;2.17;;;;;;;1.91;100.00;100286.50;5076608;27;100848;-27
2023/12/05 07:38:49;;;;;;;1.75;1.52;;;;;;;1.92;100.00;100284.69;5076987;27;96625;-27
2023/12/05 07:41:19;;;;;;;5.85;2.63;;;;;;;1.92;100.00;100295.38;5096060;27;96789;-27
2023/12/05 07:43:44;;;;;;;3.88;1.80;;;;;;;1.90;100.00;100290.06;5076468;27;101126;-27
2023/12/05 07:46:10;;;;;;;4.63;1.95;;;;;;;1.87;100.00;100289.31;5095060;27;98452;-27
2023/12/05 07:48:35;;;;;;;1.67;1.42;;;;;;;1.95;100.00;100302.41;5094909;27;96556;-28
2023/12/05 07:51:00;;;;;;;2.03;1.65;;;;;;;1.95;100.00;100318.41;5094906;27;96810;-27
2023/12/05 07:53:25;;;;;;;1.77;1.58;;;;;;;1.90;100.00;100311.44;5094579;27;99276;-27
2023/12/05 07:55:51;;;;;;;4.80;2.40;;;;;;;1.88;100.00;100315.97;5095118;27;97821;-28
2023/12/05 07:58:16;;;;;;;3.25;1.27;;;;;;;1.94;100.00;100325.56;5093863;27;96842;-27
2023/12/05 08:00:41;;;;;;;3.65;2.75;;;;;;;1.92;100.00;100319.41;5096152;27;96792;-27
2023/12/05 08:03:07;;;;;;;2.42;1.60;;;;;;;1.92;100.00;100336.28;5098040;27;108073;-27
2023/12/05 08:05:32;;;;;;;1.42;1.33;;;;;;;1.92;100.00;100338.09;5098616;27;99149;-27
2023/12/05 08:07:57;;;;;;;2.90;1.92;;;;;;;1.90;100.00;100329.25;5098378;27;96714;-27
2023/12/05 08:10:23;;;;;;;3.70;2.90;;;;;;;1.86;100.00;100320.50;5098416;27;97036;-27
2023/12/05 08:12:49;;;;;;;4.63;2.35;;;;;;;1.88;100.00;100328.44;5097887;27;97936;-27
2023/12/05 08:15:14;;;;;;;2.45;1.92;;;;;;;1.94;100.00;100343.41;5098463;27;98301;-27
2023/12/05 08:17:39;;;;;;;2.00;1.48;;;;;;;1.96;100.00;100346.88;5098577;27;96769;-27
2023/12/05 08:20:06;;;;;;;2.42;2.17;;;;;;;1.96;100.00;100342.41;5098802;27;96809;-27
2023/12/05 08:22:33;;;;;;;1.70;1.50;;;;;;;1.94;100.00;100343.41;5079151;27;101931;-27
2023/12/05 08:24:58;;;;;;;1.33;1.25;;;;;;;1.97;100.00;100348.63;5079417;27;101116;-27
2023/12/05 08:27:24;;;;;;;2.80;1.55;;;;;;;1.95;100.00;100350.47;5098603;27;96789;-28
2023/12/05 08:29:49;;;;;;;1.63;1.52;;;;;;;1.91;100.00;100353.25;5099007;27;96847;-27
2023/12/05 08:32:14;;;;;;;2.03;1.80;;;;;;;1.97;100.00;100365.50;5097543;27;107527;-27
2023/12/05 08:34:40;;;;;;;2.30;1.88;;;;;;;2.02;100.00;100366.22;5097998;27;97915;-27
2023/12/05 08:37:06;;;;;;;3.78;2.78;;;;;;;1.96;100.00;100368.25;5097691;27;96792;-27
2023/12/05 08:39:31;;;;;;;2.03;1.70;;;;;;;1.93;100.00;100371.88;5098102;27;96863;-28
2023/12/05 08:41:59;;;;;;;2.05;1.83;;;;;;;1.92;100.00;100373.69;5098013;27;97869;-27
2023/12/05 08:44:24;;;;;;;2.65;1.95;;;;;;;1.96;100.00;100377.13;5079027;27;100932;-27
2023/12/05 08:46:50;;;;;;;3.33;1.73;;;;;;;1.91;100.00;100374.63;5079245;27;96648;-27
2023/12/05 08:49:15;;;;;;;1.55;1.42;;;;;;;1.94;100.00;100376.31;5098005;27;96762;-27
2023/12/05 08:51:41;;;;;;;3.35;2.80;;;;;;;1.94;100.00;100388.78;5097712;27;99286;-27
2023/12/05 08:54:06;;;;;;;3.45;2.78;;;;;;;1.98;100.00;100388.66;5097540;27;99348;-27
2023/12/05 08:56:33;;;;;;;1.40;1.10;;;;;;;2.02;100.00;100397.41;5097937;27;96576;-28
2023/12/05 08:58:58;;;;;;;11.73;1.70;;;;;;;1.96;100.00;100378.94;5098180;27;96860;-27
2023/12/05 09:01:24;;;;;;;2.58;2.30;;;;;;;2.02;100.00;100400.94;5096978;27;97518;-27
2023/12/05 09:03:50;;;;;;;2.05;1.35;;;;;;;1.99;100.00;100401.06;5078914;27;99100;-28
2023/12/05 09:06:15;;;;;;;1.10;1.05;;;;;;;1.98;100.00;100393.09;5079186;27;96731;-27
2023/12/05 09:08:41;;;;;;;1.83;1.25;;;;;;;2.01;100.00;100401.00;5097725;27;97047;-27
2023/12/05 09:11:06;;;;;;;1.83;1.65;;;;;;;2.01;100.00;100399.22;5097669;27;97434;-27
2023/12/05 09:13:32;;;;;;;5.80;2.03;;;;;;;2.09;100.00;100406.97;5097540;27;97804;-27
2023/12/05 09:15:57;;;;;;;4.85;2.92;;;;;;;2.09;100.00;100401.63;5097330;27;96727;-27
2023/12/05 09:18:23;;;;;;;4.70;3.03;;;;;;;2.08;100.00;100403.44;5097987;27;96907;-27
2023/12/05 09:20:48;;;;;;;2.13;1.48;;;;;;;2.07;100.00;100407.03;5097143;27;99152;-27
2023/12/05 09:23:13;;;;;;;8.52;4.22;;;;;;;2.01;100.00;100401.88;5097256;27;97887;-28
2023/12/05 09:25:39;;;;;;;6.43;3.15;;;;;;;2.07;100.00;100420.38;5096909;27;96637;-28
2023/12/05 09:28:04;;;;;;;4.63;2.10;;;;;;;2.05;100.00;100416.00;5097263;27;96819;-27
2023/12/05 09:30:29;;;;;;;3.03;1.77;;;;;;;2.06;100.00;100418.63;5096963;27;97868;-27
2023/12/05 09:32:55;;;;;;;2.92;1.77;;;;;;;2.09;100.00;100414.97;5097173;27;97214;-27
2023/12/05 09:35:20;;;;;;;3.92;2.17;;;;;;;2.16;100.00;100426.34;5097587;27;96429;-27
2023/12/05 09:37:45;;;;;;;2.10;1.92;;;;;;;2.12;100.00;100433.56;5097074;27;96812;-27
2023/12/05 09:40:11;;;;;;;4.35;2.80;;;;;;;2.07;100.00;100423.06;5096943;27;97874;-27
2023/12/05 09:42:41;;;;;;;2.28;2.08;;;;;;;2.11;100.00;100432.69;5097212;27;99091;-27
2023/12/05 09:45:13;;;;;;;3.03;2.03;;;;;;;2.11;100.00;100439.84;5078482;27;96585;-27
2023/12/05 09:47:42;;;;;;;0.82;0.80;;;;;;;2.09;100.00;100441.69;5097277;27;96596;-28
2023/12/05 09:50:09;;;;;;;4.85;3.22;;;;;;;2.09;100.00;100441.69;5077554;27;101296;-27
2023/12/05 09:52:34;;;;;;;2.58;1.88;;;;;;;2.15;100.00;100456.66;5077320;27;100531;-27
2023/12/05 09:55:00;;;;;;;3.10;2.13;;;;;;;2.09;100.00;100455.03;5078447;27;96603;-28
2023/12/05 09:57:26;;;;;;;10.48;4.50;;;;;;;2.10;100.00;100459.47;5097222;27;96787;-28
2023/12/05 09:59:51;;;;;;;3.70;2.28;;;;;;;2.08;100.00;100477.34;5077976;27;100835;-27
2023/12/05 10:02:19;;;;;;;3.85;3.13;;;;;;;2.09;100.00;100473.75;5096664;27;96511;-27
2023/12/05 10:04:44;;;;;;;5.40;3.30;;;;;;;2.00;100.00;100466.94;5078202;27;96602;-27
2023/12/05 10:07:11;;;;;;;1.98;1.70;;;;;;;2.02;100.00;100475.72;5097305;27;96759;-27
2023/12/05 10:09:40;;;;;;;3.05;2.30;;;;;;;2.08;100.00;100483.56;5077784;27;101111;-28
2023/12/05 10:12:06;;;;;;;3.08;1.70;;;;;;;2.09;100.00;100490.63;5096199;27;99138;-28
2023/12/05 10:14:32;;;;;;;4.15;3.03;;;;;;;2.09;100.00;100497.78;5096193;27;96435;-27
2023/12/05 10:16:57;;;;;;;6.30;3.47;;;;;;;2.08;100.00;100502.25;5096665;27;96802;-27
2023/12/05 10:19:24;;;;;;;3.25;2.03;;;;;;;2.06;100.00;100490.75;5096144;27;99734;-27
2023/12/05 10:21:54;;;;;;;4.60;2.70;;;;;;;2.11;100.00;100490.59;5077575;27;101176;-28
2023/12/05 10:24:21;;;;;;;1.70;1.55;;;;;;;2.13;100.00;100502.97;5077411;27;96781;-27
2023/12/05 10:26:47;;;;;;;1.90;1.73;;;;;;;2.15;100.00;100502.94;5077798;27;96837;-27
2023/12/05 10:29:13;;;;;;;8.43;3.50;;;;;;;2.10;100.00;100497.75;5077564;27;101241;-27
2023/12/05 10:31:40;;;;;;;1.73;1.25;;;;;;;2.11;100.00;100510.16;5077700;27;101148;-27
2023/12/05 10:34:06;;;;;;;5.32;2.60;;;;;;;2.07;100.00;100504.97;5096480;27;96656;-27
2023/12/05 10:36:32;;;;;;;3.13;2.63;;;;;;;2.12;100.00;100511.94;5096105;27;96858;-27
2023/12/05 10:38:57;;;;;;;3.60;2.30;;;;;;;2.03;100.00;100500.69;5095684;27;97933;-27
2023/12/05 10:41:23;;;;;;;13.45;2.75;;;;;;;2.08;100.00;100512.09;5096238;27;97401;-27
2023/12/05 10:43:49;;;;;;;5.10;3.25;;;;;;;2.06;100.00;100504.09;5077625;27;96532;-27
2023/12/05 10:46:15;;;;;;;1.55;1.42;;;;;;;2.10;100.00;100513.78;5096025;27;96857;-27
2023/12/05 10:48:40;;;;;;;4.13;3.40;;;;;;;2.00;100.00;100504.31;5096109;27;97423;-27
2023/12/05 10:51:06;;;;;;;5.03;2.33;;;;;;;2.09;100.00;100516.47;5095663;27;97786;-27
2023/12/05 10:53:34;;;;;;;1.52;1.30;;;;;;;2.09;100.00;100514.69;5095728;27;96604;-27
2023/12/05 10:56:12;;;;;;;6.32;2.88;;;;;;;2.15;100.00;100526.13;5096660;27;96790;-27
2023/12/05 10:58:40;;;;;;;4.43;2.13;;;;;;;2.12;100.00;100529.75;5077084;27;102316;-27
2023/12/05 11:01:11;;;;;;;3.63;2.53;;;;;;;2.08;100.00;100520.97;5077187;27;100677;-27
2023/12/05 11:03:38;;;;;;;7.20;3.50;;;;;;;2.07;100.00;100527.25;5077075;27;96679;-27
2023/12/05 11:06:07;;;;;;;6.88;3.28;;;;;;;2.08;100.00;100530.78;5077173;27;96899;-29
2023/12/05 11:08:33;;;;;;;5.35;3.03;;;;;;;2.06;100.00;100528.16;5076986;27;100773;-27
2023/12/05 11:11:01;;;;;;;5.55;2.50;;;;;;;2.10;100.00;100539.63;5077116;27;100409;-27
2023/12/05 11:13:27;;;;;;;3.63;2.17;;;;;;;2.13;100.00;100535.03;5077255;27;96561;-26
2023/12/05 11:15:56;;;;;;;2.47;2.08;;;;;;;2.15;100.00;100545.69;5077329;27;96852;-28
2023/12/05 11:18:31;;;;;;;4.47;1.83;;;;;;;2.08;100.00;100528.09;5076835;27;100924;-27